Time;durP1;ratioP1;P1;durP2;ratioP2;P2;SDS_P1;SDS_P2;PMS_P1;PMS_P2;Temp;Humidity;BMP_temperature;BMP_pressure;BME280_temperature;BME280_humidity;BME280_pressure;Samples;Min_cycle;Max_cycle;Signal;HPM_P1;HPM_P2
2023/04/19 00:01:19;;;;;;;2.55;2.35;;;16.20;56.20;;;;;;5074283;28;20556;-61
2023/04/19 00:03:45;;;;;;;3.30;3.03;;;16.20;56.20;;;;;;5074598;28;20236;-61
2023/04/19 00:06:13;;;;;;;3.30;3.00;;;16.20;56.20;;;;;;5073466;28;20170;-60
2023/04/19 00:08:40;;;;;;;3.17;2.92;;;16.20;56.30;;;;;;5074315;28;20648;-61
2023/04/19 00:11:06;;;;;;;3.10;2.80;;;16.20;56.30;;;;;;5073877;28;20554;-60
2023/04/19 00:13:32;;;;;;;2.80;2.60;;;16.20;56.20;;;;;;5073582;28;20232;-61
2023/04/19 00:15:57;;;;;;;2.70;2.50;;;16.20;56.30;;;;;;5074314;28;20232;-60
2023/04/19 00:18:23;;;;;;;2.88;2.67;;;16.20;56.30;;;;;;5073839;28;20162;-60
2023/04/19 00:20:48;;;;;;;2.90;2.70;;;16.20;56.30;;;;;;5073427;28;20186;-60
2023/04/19 00:23:14;;;;;;;2.97;2.67;;;16.20;56.30;;;;;;5073640;28;20210;-60
2023/04/19 00:25:40;;;;;;;2.75;2.55;;;16.20;56.40;;;;;;5073222;28;20179;-61
2023/04/19 00:28:05;;;;;;;3.30;3.00;;;16.20;56.40;;;;;;5074000;28;20255;-61
2023/04/19 00:30:31;;;;;;;2.58;2.38;;;16.20;56.40;;;;;;5073961;28;20310;-61
2023/04/19 00:32:56;;;;;;;3.35;3.15;;;16.20;56.60;;;;;;5073199;28;20179;-62
2023/04/19 00:35:22;;;;;;;3.13;2.90;;;16.20;56.40;;;;;;5073498;28;20174;-61
2023/04/19 00:37:47;;;;;;;3.13;2.83;;;16.20;56.40;;;;;;5073789;28;20223;-61
2023/04/19 00:40:13;;;;;;;2.67;2.47;;;16.10;56.40;;;;;;5072845;28;20224;-61
2023/04/19 00:42:38;;;;;;;3.40;3.10;;;16.20;56.50;;;;;;5073637;28;20223;-60
2023/04/19 00:45:04;;;;;;;2.88;2.67;;;16.10;56.40;;;;;;5073684;28;20265;-60
2023/04/19 00:47:30;;;;;;;3.03;2.83;;;16.10;56.40;;;;;;5072852;28;20622;-60
2023/04/19 00:49:55;;;;;;;2.40;2.28;;;16.20;56.50;;;;;;5073592;28;20198;-60
2023/04/19 00:52:21;;;;;;;2.95;2.75;;;16.10;56.40;;;;;;5073187;28;20175;-60
2023/04/19 00:54:46;;;;;;;3.50;3.20;;;16.10;56.50;;;;;;5071422;28;20179;-60
2023/04/19 00:57:12;;;;;;;3.30;2.63;;;16.10;56.50;;;;;;5073069;28;20177;-61
2023/04/19 00:59:38;;;;;;;3.00;2.80;;;16.10;56.50;;;;;;5072344;28;20199;-61
2023/04/19 01:02:03;;;;;;;2.50;2.30;;;16.10;56.50;;;;;;5071550;28;20167;-61
2023/04/19 01:04:29;;;;;;;3.13;2.92;;;16.10;56.50;;;;;;5073020;28;20205;-61
2023/04/19 01:06:54;;;;;;;2.78;2.58;;;16.10;56.50;;;;;;5072205;28;20489;-60
2023/04/19 01:09:20;;;;;;;2.88;2.67;;;16.10;56.50;;;;;;5072034;28;20179;-61
2023/04/19 01:11:45;;;;;;;3.10;2.90;;;16.10;56.50;;;;;;5073162;28;20273;-60
2023/04/19 01:14:11;;;;;;;3.28;3.00;;;16.10;56.50;;;;;;5072809;28;20181;-60
2023/04/19 01:16:37;;;;;;;3.10;2.85;;;16.10;56.60;;;;;;5072556;28;20171;-60
2023/04/19 01:19:03;;;;;;;3.05;2.85;;;16.10;56.50;;;;;;5073029;28;20186;-60
2023/04/19 01:21:29;;;;;;;3.28;3.00;;;16.10;56.50;;;;;;5072642;28;20175;-60
2023/04/19 01:23:55;;;;;;;3.35;3.05;;;16.10;56.50;;;;;;5071907;28;20230;-60
2023/04/19 01:26:20;;;;;;;3.25;2.88;;;16.10;56.50;;;;;;5072538;28;20178;-61
2023/04/19 01:28:46;;;;;;;3.05;2.85;;;16.00;56.50;;;;;;5072974;28;20178;-61
2023/04/19 01:31:11;;;;;;;3.15;2.95;;;16.10;56.50;;;;;;5071883;28;20202;-61
2023/04/19 01:33:37;;;;;;;3.10;2.90;;;16.10;56.60;;;;;;5072819;28;20605;-61
2023/04/19 01:36:02;;;;;;;3.05;2.80;;;16.00;56.50;;;;;;5071897;28;20170;-61
2023/04/19 01:38:28;;;;;;;2.83;2.63;;;16.00;56.50;;;;;;5072335;28;20170;-61
2023/04/19 01:40:56;;;;;;;3.20;2.90;;;16.00;56.50;;;;;;5072850;28;20570;-61
2023/04/19 01:43:21;;;;;;;3.60;3.30;;;16.10;56.60;;;;;;5071788;28;20178;-60
2023/04/19 01:45:47;;;;;;;3.33;3.13;;;16.00;56.60;;;;;;5072809;28;20262;-60
2023/04/19 01:48:12;;;;;;;3.00;2.65;;;16.00;56.50;;;;;;5072282;28;20194;-61
2023/04/19 01:50:38;;;;;;;3.10;2.90;;;16.00;56.50;;;;;;5071881;28;20236;-60
2023/04/19 01:53:03;;;;;;;3.38;3.17;;;16.00;56.50;;;;;;5072498;28;20207;-61
2023/04/19 01:55:29;;;;;;;2.95;2.75;;;16.00;56.50;;;;;;5072260;28;20626;-61
2023/04/19 01:57:54;;;;;;;3.10;2.90;;;16.00;56.50;;;;;;5071778;28;20544;-62
2023/04/19 02:00:20;;;;;;;3.08;2.80;;;16.00;56.50;;;;;;5071647;28;20517;-61
2023/04/19 02:02:46;;;;;;;3.28;2.95;;;16.00;56.50;;;;;;5072287;28;20178;-61
2023/04/19 02:05:11;;;;;;;3.00;2.80;;;16.00;56.60;;;;;;5071292;28;20182;-61
2023/04/19 02:07:37;;;;;;;2.80;2.60;;;16.00;56.60;;;;;;5072223;28;20170;-60
2023/04/19 02:10:04;;;;;;;2.95;2.72;;;15.90;56.50;;;;;;5072118;28;20569;-60
2023/04/19 02:12:30;;;;;;;2.92;2.72;;;16.00;56.60;;;;;;5071662;28;20192;-60
2023/04/19 02:14:56;;;;;;;2.90;2.70;;;16.00;56.60;;;;;;5072320;28;20547;-60
2023/04/19 02:17:25;;;;;;;3.05;2.78;;;16.00;56.60;;;;;;5071641;28;20179;-60
2023/04/19 02:19:51;;;;;;;3.13;2.92;;;16.00;56.60;;;;;;5071293;28;20639;-60
2023/04/19 02:22:19;;;;;;;3.50;3.17;;;16.00;56.60;;;;;;5071653;28;20325;-61
2023/04/19 02:24:46;;;;;;;2.97;2.78;;;16.00;56.60;;;;;;5072335;28;20174;-60
2023/04/19 02:27:11;;;;;;;2.92;2.72;;;16.00;56.60;;;;;;5071101;28;20663;-60
2023/04/19 02:29:37;;;;;;;2.90;2.70;;;15.90;56.60;;;;;;5072083;28;20214;-61
2023/04/19 02:32:04;;;;;;;2.95;2.75;;;15.90;56.60;;;;;;5072141;28;20174;-61
2023/04/19 02:34:30;;;;;;;3.40;2.80;;;15.90;56.60;;;;;;5071317;28;20178;-61
2023/04/19 02:36:56;;;;;;;2.80;2.60;;;16.00;56.60;;;;;;5071994;28;20539;-61
2023/04/19 02:39:22;;;;;;;2.90;2.70;;;15.90;56.60;;;;;;5071288;28;20182;-61
2023/04/19 02:41:47;;;;;;;2.92;2.72;;;15.90;56.60;;;;;;5072121;28;20184;-60
2023/04/19 02:44:13;;;;;;;3.28;3.03;;;16.00;56.80;;;;;;5071882;28;20744;-61
2023/04/19 02:46:38;;;;;;;3.40;3.10;;;15.90;56.70;;;;;;5071343;28;20182;-61
2023/04/19 02:49:04;;;;;;;3.25;3.05;;;15.90;56.60;;;;;;5071894;28;20167;-61
2023/04/19 02:51:30;;;;;;;3.50;3.20;;;15.90;56.70;;;;;;5071787;28;20261;-60
2023/04/19 02:53:55;;;;;;;3.15;2.95;;;15.90;56.60;;;;;;5071168;28;20201;-61
2023/04/19 02:56:21;;;;;;;2.97;2.78;;;15.90;56.70;;;;;;5071658;28;20181;-61
2023/04/19 02:58:46;;;;;;;2.72;2.53;;;15.90;56.80;;;;;;5071995;28;20550;-62
2023/04/19 03:01:12;;;;;;;3.00;2.80;;;15.90;56.70;;;;;;5070724;28;20542;-61
2023/04/19 03:03:40;;;;;;;2.92;2.72;;;15.90;56.70;;;;;;5071723;28;20181;-61
2023/04/19 03:06:06;;;;;;;3.03;2.83;;;15.90;56.70;;;;;;5071634;28;20225;-60
2023/04/19 03:08:32;;;;;;;2.95;2.75;;;15.90;56.70;;;;;;5070954;28;20672;-60
2023/04/19 03:10:57;;;;;;;3.05;2.83;;;15.90;56.70;;;;;;5071763;28;20210;-60
2023/04/19 03:13:23;;;;;;;2.85;2.65;;;15.90;56.80;;;;;;5071607;28;20359;-60
2023/04/19 03:15:49;;;;;;;2.90;2.70;;;15.90;56.80;;;;;;5070939;28;20197;-60
2023/04/19 03:18:15;;;;;;;2.90;2.70;;;15.90;56.80;;;;;;5071328;28;20642;-60
2023/04/19 03:20:41;;;;;;;2.78;2.58;;;15.90;56.80;;;;;;5071362;28;20210;-60
2023/04/19 03:23:06;;;;;;;2.95;2.75;;;15.90;56.80;;;;;;5070333;28;20258;-60
2023/04/19 03:25:32;;;;;;;3.10;2.90;;;15.90;56.80;;;;;;5071664;28;20183;-60
2023/04/19 03:27:58;;;;;;;3.25;2.97;;;15.90;56.80;;;;;;5071788;28;20245;-60
2023/04/19 03:30:23;;;;;;;3.55;3.15;;;15.90;56.80;;;;;;5072181;28;20722;-61
2023/04/19 03:32:50;;;;;;;2.92;2.70;;;15.90;56.80;;;;;;5075040;28;20170;-61
2023/04/19 03:35:16;;;;;;;2.95;2.75;;;15.90;56.80;;;;;;5074970;28;20292;-61
2023/04/19 03:37:42;;;;;;;2.63;2.42;;;15.90;56.80;;;;;;5074341;28;20253;-61
2023/04/19 03:40:08;;;;;;;3.03;2.78;;;15.90;56.90;;;;;;5074904;28;20193;-61
2023/04/19 03:42:33;;;;;;;2.67;2.47;;;15.90;56.90;;;;;;5074420;28;20242;-60
2023/04/19 03:44:59;;;;;;;3.03;2.83;;;15.80;56.80;;;;;;5074945;28;20722;-61
2023/04/19 03:47:24;;;;;;;3.45;3.15;;;15.90;56.80;;;;;;5074694;28;20549;-60
2023/04/19 03:49:50;;;;;;;2.78;2.58;;;15.90;56.90;;;;;;5073882;28;20214;-60
2023/04/19 03:52:15;;;;;;;3.17;2.90;;;15.80;56.80;;;;;;5074870;28;20171;-60
2023/04/19 03:54:41;;;;;;;3.20;3.00;;;15.80;56.80;;;;;;5075018;28;20261;-61
2023/04/19 03:57:07;;;;;;;2.92;2.72;;;15.80;56.80;;;;;;5073409;28;20170;-61
2023/04/19 03:59:33;;;;;;;3.22;2.92;;;15.90;56.90;;;;;;5074747;28;20175;-61
2023/04/19 04:01:59;;;;;;;2.85;2.65;;;15.80;56.90;;;;;;5073202;28;20167;-61
2023/04/19 04:04:24;;;;;;;3.58;3.28;;;15.90;56.80;;;;;;5073583;28;20205;-60
2023/04/19 04:06:50;;;;;;;8.43;3.15;;;15.80;56.90;;;;;;5074690;28;20171;-60
2023/04/19 04:09:16;;;;;;;2.95;2.75;;;15.80;56.80;;;;;;5074440;28;20178;-60
2023/04/19 04:11:41;;;;;;;2.88;2.53;;;15.80;56.90;;;;;;5073569;28;20210;-60
2023/04/19 04:14:07;;;;;;;2.88;2.58;;;15.90;56.80;;;;;;5074253;28;20178;-60
2023/04/19 04:16:32;;;;;;;3.10;2.90;;;15.80;56.90;;;;;;5074269;28;20178;-60
2023/04/19 04:18:58;;;;;;;2.78;2.58;;;15.80;56.80;;;;;;5073667;28;20197;-61
2023/04/19 04:21:23;;;;;;;3.20;2.90;;;15.80;57.50;;;;;;5073821;28;20232;-60
2023/04/19 04:23:49;;;;;;;3.03;2.83;;;15.80;56.90;;;;;;5073843;28;20226;-60
2023/04/19 04:26:17;;;;;;;3.10;2.90;;;15.80;56.90;;;;;;5073129;28;20210;-60
2023/04/19 04:28:42;;;;;;;3.28;2.85;;;15.80;56.90;;;;;;5074037;28;20233;-61
2023/04/19 04:31:08;;;;;;;3.50;2.80;;;15.80;56.90;;;;;;5073620;28;20202;-61
2023/04/19 04:33:34;;;;;;;2.80;2.60;;;15.80;56.90;;;;;;5073233;28;20182;-61
2023/04/19 04:36:00;;;;;;;3.15;2.85;;;15.80;56.80;;;;;;5074108;28;20174;-61
2023/04/19 04:38:26;;;;;;;2.88;2.67;;;15.80;56.90;;;;;;5073845;28;20510;-62
2023/04/19 04:40:55;;;;;;;2.78;2.58;;;15.80;56.90;;;;;;5073010;28;20522;-61
2023/04/19 04:43:24;;;;;;;2.97;2.78;;;15.80;56.90;;;;;;5073583;28;20189;-62
2023/04/19 04:45:55;;;;;;;2.90;2.70;;;15.70;56.90;;;;;;5073239;28;20178;-62
2023/04/19 04:48:21;;;;;;;2.67;2.47;;;15.80;56.90;;;;;;5073432;28;20181;-62
2023/04/19 04:50:46;;;;;;;3.17;2.92;;;15.70;56.80;;;;;;5073755;28;20222;-62
2023/04/19 04:53:12;;;;;;;2.70;2.50;;;15.70;56.90;;;;;;5072420;28;20688;-62
2023/04/19 04:55:37;;;;;;;3.08;2.80;;;15.80;56.90;;;;;;5073533;28;20179;-62
2023/04/19 04:58:04;;;;;;;2.85;2.65;;;15.80;56.90;;;;;;5073556;28;20181;-63
2023/04/19 05:00:30;;;;;;;2.95;2.72;;;15.70;56.90;;;;;;5072758;28;20178;-63
2023/04/19 05:02:56;;;;;;;2.92;2.70;;;15.70;56.90;;;;;;5073664;28;20621;-62
2023/04/19 05:05:21;;;;;;;2.80;2.60;;;15.70;56.90;;;;;;5073120;28;20185;-62
2023/04/19 05:07:47;;;;;;;2.67;2.50;;;15.80;56.90;;;;;;5072535;28;20193;-62
2023/04/19 05:10:12;;;;;;;3.50;3.28;;;15.70;56.90;;;;;;5072915;28;20206;-61
2023/04/19 05:12:38;;;;;;;3.08;2.78;;;15.70;56.90;;;;;;5072935;28;20170;-61
2023/04/19 05:15:04;;;;;;;2.95;2.75;;;15.70;56.90;;;;;;5072295;28;20224;-62
2023/04/19 05:17:30;;;;;;;3.10;2.90;;;15.70;56.90;;;;;;5073126;28;20178;-62
2023/04/19 05:19:55;;;;;;;2.80;2.60;;;15.70;56.90;;;;;;5073122;28;20641;-61
2023/04/19 05:22:21;;;;;;;3.80;2.95;;;15.70;56.90;;;;;;5071904;28;20301;-62
2023/04/19 05:24:48;;;;;;;3.60;3.30;;;15.70;56.90;;;;;;5073145;28;20225;-62
2023/04/19 05:27:14;;;;;;;2.75;2.55;;;15.70;56.80;;;;;;5072690;28;20171;-62
2023/04/19 05:29:40;;;;;;;3.17;2.53;;;15.80;56.90;;;;;;5071813;28;20186;-62
2023/04/19 05:32:06;;;;;;;2.83;2.63;;;15.70;56.90;;;;;;5072585;28;20629;-62
2023/04/19 05:34:35;;;;;;;2.95;2.75;;;15.70;56.90;;;;;;5072835;28;20232;-62
2023/04/19 05:37:01;;;;;;;2.70;2.50;;;15.70;56.90;;;;;;5071933;28;20198;-62
2023/04/19 05:39:27;;;;;;;3.13;2.83;;;15.70;56.90;;;;;;5072141;28;20175;-62
2023/04/19 05:41:52;;;;;;;3.10;2.85;;;15.70;56.80;;;;;;5072596;28;20174;-62
2023/04/19 05:44:18;;;;;;;3.20;3.00;;;15.70;56.80;;;;;;5071488;28;20175;-62
2023/04/19 05:46:43;;;;;;;2.80;2.60;;;15.70;56.90;;;;;;5072459;28;20568;-61
2023/04/19 05:49:09;;;;;;;3.28;3.08;;;15.70;56.90;;;;;;5071628;28;20167;-62
2023/04/19 05:51:34;;;;;;;2.92;2.72;;;15.70;56.80;;;;;;5072399;28;20214;-61
2023/04/19 05:54:00;;;;;;;3.17;2.88;;;15.70;56.80;;;;;;5072228;28;20189;-62
2023/04/19 05:56:25;;;;;;;2.75;2.55;;;15.70;56.80;;;;;;5071700;28;20185;-63
2023/04/19 05:58:51;;;;;;;3.05;2.85;;;15.70;56.70;;;;;;5072423;28;20540;-63
2023/04/19 06:01:17;;;;;;;2.70;2.50;;;15.80;57.30;;;;;;5072381;28;20592;-62
2023/04/19 06:03:42;;;;;;;3.05;2.85;;;15.90;56.60;;;;;;5070642;28;20542;-62
2023/04/19 06:06:08;;;;;;;2.65;2.45;;;16.00;56.50;;;;;;5071984;28;20257;-61
2023/04/19 06:08:33;;;;;;;2.65;2.45;;;16.10;56.40;;;;;;5072018;28;20269;-61
2023/04/19 06:11:02;;;;;;;2.38;2.28;;;16.30;56.30;;;;;;5071472;28;20206;-61
2023/04/19 06:13:27;;;;;;;2.60;2.40;;;16.40;56.10;;;;;;5070740;28;20171;-61
2023/04/19 06:15:53;;;;;;;2.60;2.40;;;16.60;55.80;;;;;;5072382;28;20170;-61
2023/04/19 06:18:19;;;;;;;2.72;2.53;;;16.70;55.50;;;;;;5071503;28;20185;-62
2023/04/19 06:20:45;;;;;;;2.92;2.50;;;16.80;55.30;;;;;;5072706;28;20181;-61
2023/04/19 06:23:11;;;;;;;2.50;2.30;;;16.90;55.30;;;;;;5072116;28;20218;-61
2023/04/19 06:25:37;;;;;;;2.70;2.50;;;17.00;55.30;;;;;;5071889;28;20315;-61
2023/04/19 06:28:03;;;;;;;2.25;2.05;;;17.10;55.10;;;;;;5072460;28;20245;-61
2023/04/19 06:30:28;;;;;;;2.58;2.15;;;17.20;54.90;;;;;;5072148;28;20347;-62
2023/04/19 06:32:54;;;;;;;2.45;2.25;;;17.30;54.80;;;;;;5071855;28;20220;-62
2023/04/19 06:35:20;;;;;;;2.55;2.35;;;17.50;54.60;;;;;;5072200;28;20181;-62
2023/04/19 06:37:45;;;;;;;2.33;2.22;;;17.70;55.00;;;;;;5072401;28;20166;-62
2023/04/19 06:40:11;;;;;;;2.15;2.05;;;17.70;54.10;;;;;;5071447;28;20175;-62
2023/04/19 06:42:37;;;;;;;2.00;1.90;;;17.80;53.90;;;;;;5072052;28;20185;-62
2023/04/19 06:45:03;;;;;;;2.90;2.70;;;17.80;53.90;;;;;;5072582;28;20625;-61
2023/04/19 06:47:28;;;;;;;2.15;1.98;;;17.80;54.10;;;;;;5071072;28;20248;-61
2023/04/19 06:49:54;;;;;;;3.30;2.20;;;17.80;54.20;;;;;;5072190;28;20198;-61
2023/04/19 06:52:22;;;;;;;3.65;2.22;;;17.70;54.20;;;;;;5071736;28;20187;-61
2023/04/19 06:54:48;;;;;;;2.53;2.33;;;17.70;54.20;;;;;;5071255;28;20191;-60
2023/04/19 06:57:15;;;;;;;2.70;2.20;;;17.70;54.40;;;;;;5071690;28;20171;-62
2023/04/19 06:59:40;;;;;;;3.38;2.35;;;17.70;54.60;;;;;;5071601;28;20254;-63
2023/04/19 07:02:06;;;;;;;2.53;2.33;;;17.70;54.80;;;;;;5071693;28;20253;-63
2023/04/19 07:04:31;;;;;;;2.22;2.03;;;17.70;55.00;;;;;;5072555;28;20257;-62
2023/04/19 07:06:57;;;;;;;3.83;2.53;;;17.70;55.10;;;;;;5075246;28;20278;-62
2023/04/19 07:09:22;;;;;;;3.42;2.47;;;17.70;55.10;;;;;;5075785;28;20623;-63
2023/04/19 07:11:50;;;;;;;4.63;2.33;;;17.70;55.10;;;;;;5075794;28;20759;-64
2023/04/19 07:14:15;;;;;;;4.28;2.03;;;17.60;55.10;;;;;;5075105;28;20179;-64
2023/04/19 07:16:41;;;;;;;3.08;2.47;;;17.60;55.30;;;;;;5075830;28;20269;-61
2023/04/19 07:19:06;;;;;;;3.83;2.60;;;17.60;55.40;;;;;;5075551;28;20175;-63
2023/04/19 07:21:33;;;;;;;6.38;3.03;;;17.50;55.80;;;;;;5075025;28;20170;-60
2023/04/19 07:23:59;;;;;;;4.90;2.72;;;17.50;55.70;;;;;;5075521;28;20720;-61
2023/04/19 07:26:24;;;;;;;3.63;2.03;;;17.50;55.80;;;;;;5075341;28;20190;-62
2023/04/19 07:28:50;;;;;;;2.22;2.05;;;17.50;55.70;;;;;;5075082;28;20582;-62
2023/04/19 07:31:16;;;;;;;2.92;2.40;;;17.50;55.80;;;;;;5075462;28;20628;-62
2023/04/19 07:33:42;;;;;;;3.95;2.38;;;17.50;55.90;;;;;;5075690;28;20174;-62
2023/04/19 07:36:07;;;;;;;5.00;2.35;;;17.50;55.90;;;;;;5074507;28;20656;-62
2023/04/19 07:38:33;;;;;;;3.05;2.28;;;17.50;56.00;;;;;;5075467;28;20204;-61
2023/04/19 07:40:59;;;;;;;5.15;2.38;;;17.50;56.10;;;;;;5075267;28;20183;-61
2023/04/19 07:43:24;;;;;;;4.15;2.30;;;17.50;55.80;;;;;;5074295;28;20271;-61
2023/04/19 07:45:50;;;;;;;2.55;2.35;;;17.50;56.20;;;;;;5075242;28;20182;-61
2023/04/19 07:48:16;;;;;;;4.20;2.30;;;17.50;56.20;;;;;;5074961;28;20266;-62
2023/04/19 07:50:41;;;;;;;3.38;2.70;;;17.50;56.10;;;;;;5074564;28;20301;-61
2023/04/19 07:53:07;;;;;;;2.33;2.13;;;17.40;56.00;;;;;;5074862;28;20257;-62
2023/04/19 07:55:32;;;;;;;3.17;2.10;;;17.40;56.00;;;;;;5074910;28;20170;-62
2023/04/19 07:57:59;;;;;;;3.55;2.38;;;17.40;56.10;;;;;;5074699;28;20216;-62
2023/04/19 08:00:24;;;;;;;5.07;2.08;;;17.40;56.00;;;;;;5074974;28;20232;-63
2023/04/19 08:02:50;;;;;;;2.85;2.35;;;17.40;56.10;;;;;;5074432;28;20174;-62
2023/04/19 08:05:16;;;;;;;2.20;2.00;;;17.40;56.10;;;;;;5074539;28;20590;-63
2023/04/19 08:07:42;;;;;;;4.72;2.10;;;17.50;56.20;;;;;;5074780;28;20683;-62
2023/04/19 08:10:10;;;;;;;2.63;2.13;;;17.40;56.10;;;;;;5073727;28;20210;-63
2023/04/19 08:12:36;;;;;;;2.67;2.13;;;17.40;56.10;;;;;;5074802;28;20194;-62
2023/04/19 08:15:02;;;;;;;2.47;2.15;;;17.40;56.10;;;;;;5074576;28;20205;-63
2023/04/19 08:17:28;;;;;;;3.63;2.20;;;17.40;56.10;;;;;;5073400;28;20170;-62
2023/04/19 08:19:53;;;;;;;3.28;2.30;;;17.40;56.10;;;;;;5074550;28;20529;-62
2023/04/19 08:22:20;;;;;;;2.63;2.03;;;17.40;55.90;;;;;;5074001;28;20572;-62
2023/04/19 08:24:45;;;;;;;3.38;2.10;;;17.40;55.80;;;;;;5073879;28;20182;-62
2023/04/19 08:27:11;;;;;;;3.03;2.08;;;17.40;55.70;;;;;;5074443;28;20695;-62
2023/04/19 08:29:37;;;;;;;2.60;1.85;;;17.40;55.60;;;;;;5074645;28;20174;-62
2023/04/19 08:32:04;;;;;;;2.25;2.05;;;17.40;55.50;;;;;;5073820;28;20189;-63
2023/04/19 08:34:30;;;;;;;3.25;2.10;;;17.50;56.10;;;;;;5074292;28;20261;-63
2023/04/19 08:36:55;;;;;;;2.20;1.98;;;17.50;55.30;;;;;;5074154;28;20301;-62
2023/04/19 08:39:21;;;;;;;2.13;1.80;;;17.50;55.20;;;;;;5073171;28;20185;-62
2023/04/19 08:41:47;;;;;;;4.30;2.30;;;17.50;55.20;;;;;;5074315;28;20175;-62
2023/04/19 08:44:12;;;;;;;3.05;2.08;;;17.50;55.10;;;;;;5072754;28;20181;-62
2023/04/19 08:46:38;;;;;;;2.35;1.92;;;17.50;55.00;;;;;;5072382;28;20265;-62
2023/04/19 08:49:07;;;;;;;2.38;1.90;;;17.50;55.00;;;;;;5073058;28;20249;-61
2023/04/19 08:51:32;;;;;;;3.35;2.50;;;17.50;55.00;;;;;;5073891;28;20217;-60
2023/04/19 08:53:58;;;;;;;2.65;2.45;;;17.60;54.50;;;;;;5073164;28;20178;-61
2023/04/19 08:56:23;;;;;;;3.47;2.80;;;17.60;54.60;;;;;;5073836;28;20182;-60
2023/04/19 08:58:49;;;;;;;2.85;2.65;;;17.60;54.80;;;;;;5074243;28;20177;-61
2023/04/19 09:01:15;;;;;;;4.63;2.88;;;17.50;54.70;;;;;;5072598;28;20174;-60
2023/04/19 09:03:46;;;;;;;4.43;2.83;;;17.50;54.80;;;;;;5073225;28;20217;-60
2023/04/19 09:06:12;;;;;;;3.05;2.65;;;17.60;54.80;;;;;;5070208;28;20550;-60
2023/04/19 09:08:38;;;;;;;2.97;2.78;;;17.60;54.80;;;;;;5073539;28;20171;-60
2023/04/19 09:11:03;;;;;;;6.75;3.00;;;17.60;54.60;;;;;;5073739;28;20257;-59
2023/04/19 09:13:30;;;;;;;4.20;2.88;;;17.60;54.60;;;;;;5072739;28;20649;-59
2023/04/19 09:15:56;;;;;;;2.60;2.40;;;17.60;54.60;;;;;;5072901;28;20174;-60
2023/04/19 09:18:23;;;;;;;2.88;2.65;;;17.60;54.60;;;;;;5072119;28;20166;-60
2023/04/19 09:20:49;;;;;;;3.47;3.10;;;17.60;54.80;;;;;;5072833;28;20213;-60
2023/04/19 09:23:16;;;;;;;5.00;3.10;;;17.70;54.80;;;;;;5073030;28;20222;-60
2023/04/19 09:25:59;;;;;;;2.47;2.28;;;17.70;54.70;;;;;;5073142;28;20637;-60
2023/04/19 09:28:25;;;;;;;3.05;2.38;;;17.70;54.60;;;;;;5071525;28;20655;-61
2023/04/19 09:30:50;;;;;;;4.70;2.85;;;17.70;54.50;;;;;;5073049;28;20199;-60
2023/04/19 09:33:37;;;;;;;5.07;2.20;;;17.70;54.30;;;;;;5072723;28;20637;-60
2023/04/19 09:36:03;;;;;;;4.40;2.70;;;17.70;54.20;;;;;;5072073;28;20559;-61
2023/04/19 09:38:28;;;;;;;2.95;2.53;;;17.70;54.30;;;;;;5075863;28;20177;-60
2023/04/19 09:41:06;;;;;;;2.95;2.28;;;17.80;54.20;;;;;;5090915;28;20659;-60
2023/04/19 09:43:32;;;;;;;3.55;2.55;;;17.70;54.10;;;;;;5072164;28;20174;-60
2023/04/19 09:45:58;;;;;;;3.50;2.20;;;17.80;54.10;;;;;;5079756;28;20195;-60
2023/04/19 09:48:23;;;;;;;2.55;1.90;;;17.80;54.00;;;;;;5090954;28;20295;-60
2023/04/19 09:50:53;;;;;;;3.50;2.17;;;17.80;54.10;;;;;;5093172;28;20233;-60
2023/04/19 09:53:19;;;;;;;3.38;2.10;;;17.80;53.90;;;;;;5092804;28;20218;-63
2023/04/19 09:55:46;;;;;;;3.33;1.85;;;17.80;54.00;;;;;;5074007;28;20312;-62
2023/04/19 09:58:12;;;;;;;3.08;2.00;;;17.80;54.00;;;;;;5071519;28;20656;-61
2023/04/19 10:00:38;;;;;;;2.60;2.25;;;17.80;53.40;;;;;;5072117;28;20213;-61
2023/04/19 10:03:03;;;;;;;2.42;1.65;;;17.80;52.50;;;;;;5070085;28;20166;-62
2023/04/19 10:05:29;;;;;;;7.95;2.45;;;17.80;51.90;;;;;;5071936;28;20170;-63
2023/04/19 10:07:55;;;;;;;1.67;1.58;;;17.80;51.30;;;;;;5072227;28;20525;-62
2023/04/19 10:10:21;;;;;;;3.15;1.80;;;17.90;51.40;;;;;;5070060;28;20202;-62
2023/04/19 10:12:48;;;;;;;5.88;1.58;;;17.90;51.40;;;;;;5089427;28;20173;-63
2023/04/19 10:15:14;;;;;;;3.05;1.88;;;18.00;51.60;;;;;;5090600;28;20192;-60
2023/04/19 10:17:40;;;;;;;2.10;1.90;;;18.00;51.80;;;;;;5090981;28;20169;-62
2023/04/19 10:20:09;;;;;;;6.70;2.17;;;18.10;52.30;;;;;;5091990;28;20213;-61
2023/04/19 10:22:36;;;;;;;3.50;1.70;;;18.20;52.50;;;;;;5091197;28;20274;-61
2023/04/19 10:25:14;;;;;;;2.47;1.70;;;18.20;52.70;;;;;;5090755;28;20177;-61
2023/04/19 10:27:44;;;;;;;3.83;1.77;;;18.20;52.70;;;;;;5092871;28;20234;-61
2023/04/19 10:30:19;;;;;;;1.70;1.60;;;18.20;52.90;;;;;;5092393;28;20208;-60
2023/04/19 10:32:50;;;;;;;3.50;1.70;;;18.20;53.00;;;;;;5092114;28;20182;-61
2023/04/19 10:35:20;;;;;;;4.47;1.50;;;18.20;53.10;;;;;;5092492;28;20174;-61
2023/04/19 10:38:02;;;;;;;2.63;1.50;;;18.30;53.20;;;;;;5091863;28;20563;-60
2023/04/19 10:40:53;;;;;;;3.63;1.45;;;18.30;53.20;;;;;;5096066;28;20606;-61
2023/04/19 10:43:19;;;;;;;3.60;1.75;;;18.20;53.20;;;;;;5096517;28;20269;-61
2023/04/19 10:45:45;;;;;;;3.55;1.60;;;18.20;53.20;;;;;;5088491;28;20185;-62
2023/04/19 10:48:32;;;;;;;2.40;1.60;;;18.20;53.20;;;;;;5076116;28;20182;-62
2023/04/19 10:50:58;;;;;;;3.70;1.75;;;18.20;53.20;;;;;;5076431;28;20213;-62
2023/04/19 10:53:48;;;;;;;1.92;1.67;;;18.20;53.30;;;;;;5075541;28;20175;-62
2023/04/19 10:56:15;;;;;;;4.43;1.80;;;18.20;53.20;;;;;;5075730;28;20241;-62
2023/04/19 10:59:11;;;;;;;3.45;1.60;;;18.30;53.20;;;;;;5075195;28;20167;-63
2023/04/19 11:01:41;;;;;;;10.38;2.03;;;18.30;53.20;;;;;;5075020;28;20209;-63
2023/04/19 11:04:07;;;;;;;5.97;1.73;;;18.30;53.20;;;;;;5073245;28;20364;-63
2023/04/19 11:06:33;;;;;;;5.22;2.35;;;18.30;53.20;;;;;;5074829;28;20686;-61
2023/04/19 11:08:58;;;;;;;5.25;1.73;;;18.30;53.30;;;;;;5075661;28;20181;-61
2023/04/19 11:11:24;;;;;;;5.05;1.95;;;18.30;53.40;;;;;;5075556;28;20221;-62
2023/04/19 11:13:50;;;;;;;5.22;1.80;;;18.30;53.50;;;;;;5057128;28;20637;-62
2023/04/19 11:16:16;;;;;;;2.53;1.65;;;18.40;53.60;;;;;;5075560;28;20517;-61
2023/04/19 11:18:42;;;;;;;3.28;1.73;;;18.40;53.60;;;;;;5075801;28;20249;-62
2023/04/19 11:21:18;;;;;;;5.28;1.73;;;18.40;53.60;;;;;;5074730;28;20181;-61
2023/04/19 11:23:46;;;;;;;2.15;1.70;;;18.50;53.60;;;;;;5075444;28;20272;-61
2023/04/19 11:26:12;;;;;;;2.72;1.50;;;18.40;53.60;;;;;;5075473;28;20188;-61
2023/04/19 11:28:38;;;;;;;4.72;1.75;;;18.50;53.70;;;;;;5074922;28;20178;-61
2023/04/19 11:31:04;;;;;;;4.05;1.90;;;18.50;53.70;;;;;;5075681;28;20246;-63
2023/04/19 11:33:33;;;;;;;3.33;1.85;;;18.50;53.70;;;;;;5075838;28;20174;-63
2023/04/19 11:35:59;;;;;;;2.63;1.67;;;18.60;53.80;;;;;;5074939;28;20200;-63
2023/04/19 11:38:27;;;;;;;4.78;1.73;;;18.60;53.70;;;;;;5075345;28;20174;-62
2023/04/19 11:40:59;;;;;;;5.22;1.83;;;18.50;53.50;;;;;;5074856;28;20228;-62
2023/04/19 11:43:34;;;;;;;4.93;1.80;;;18.50;53.30;;;;;;5075244;28;20190;-62
2023/04/19 11:46:10;;;;;;;3.97;1.70;;;18.60;53.20;;;;;;5084044;28;20177;-62
2023/04/19 11:48:35;;;;;;;7.25;2.00;;;18.60;52.80;;;;;;5094768;28;20635;-62
2023/04/19 11:51:01;;;;;;;4.63;1.70;;;18.60;52.40;;;;;;5089391;28;20213;-66
2023/04/19 11:53:27;;;;;;;4.72;1.58;;;18.60;51.80;;;;;;5074751;28;20175;-60
2023/04/19 11:55:54;;;;;;;4.38;2.17;;;18.60;51.10;;;;;;5073681;28;20671;-63
2023/04/19 11:58:32;;;;;;;5.30;1.92;;;18.70;50.80;;;;;;5073893;28;20167;-64
2023/04/19 12:01:05;;;;;;;5.35;1.98;;;18.60;50.60;;;;;;5074583;28;20265;-68
2023/04/19 12:03:30;;;;;;;6.65;2.25;;;18.60;50.60;;;;;;5074070;28;20163;-69
2023/04/19 12:05:56;;;;;;;3.15;2.20;;;18.70;50.60;;;;;;5074706;28;20178;-66
2023/04/19 12:08:44;;;;;;;4.80;1.95;;;18.60;50.60;;;;;;5074608;28;20250;-66
2023/04/19 12:11:09;;;;;;;4.72;2.17;;;18.70;50.70;;;;;;5073831;28;20233;-65
2023/04/19 12:13:35;;;;;;;2.80;2.10;;;18.70;50.70;;;;;;5074645;28;20576;-66
2023/04/19 12:16:01;;;;;;;5.30;2.10;;;18.70;50.80;;;;;;5073820;28;20587;-66
2023/04/19 12:18:27;;;;;;;3.58;2.17;;;18.70;50.80;;;;;;5074487;28;20174;-67
2023/04/19 12:20:52;;;;;;;4.82;1.83;;;18.70;50.80;;;;;;5074664;28;20194;-69
2023/04/19 12:23:18;;;;;;;1.65;1.55;;;18.80;51.00;;;;;;5073339;28;20261;-67
2023/04/19 12:25:45;;;;;;;3.85;1.80;;;18.80;51.00;;;;;;5074096;28;20178;-68
2023/04/19 12:28:11;;;;;;;2.47;1.80;;;18.80;50.90;;;;;;5074436;28;20254;-68
2023/04/19 12:30:37;;;;;;;2.72;1.75;;;18.80;50.80;;;;;;5073733;28;20226;-69
2023/04/19 12:33:03;;;;;;;3.40;1.75;;;18.90;50.80;;;;;;5074110;28;20179;-71
2023/04/19 12:35:28;;;;;;;3.22;1.90;;;18.90;50.80;;;;;;5073631;28;20182;-71
2023/04/19 12:37:55;;;;;;;4.30;2.00;;;18.90;50.80;;;;;;5073760;28;20170;-71
2023/04/19 12:40:20;;;;;;;4.03;1.92;;;18.90;50.80;;;;;;5074118;28;20170;-68
2023/04/19 12:42:46;;;;;;;2.40;1.73;;;19.00;50.80;;;;;;5074137;28;20171;-67
2023/04/19 12:45:12;;;;;;;5.40;1.70;;;19.00;50.80;;;;;;5075715;28;21892;-65